Flight Track Log - Related Links

Times and Time Zones

All times are in EDT time to prevent confusion due to time zone crossing. See the N400S flight status page for this flight to view local times or setup timezone preferences in your user account.

Time Position Orientation Groundspeed Altitude Reporting Facility
EDT Latitude Longitude Course Direction KTS MPH feet Rate Location/Type
Tue 09:19:00 PM 33.9982 -78.5781 34° Northeast  Level FlightAware Approximate
Tue 09:20:00 PM 34.0368 -78.5483 22° Northeast  Level FlightAware Approximate
Tue 09:21:00 PM 34.0785 -78.5254 29° Northeast  Level FlightAware Approximate
Tue 09:22:00 PM 34.1187 -78.4987 29° Northeast  Level FlightAware Approximate
Tue 09:23:00 PM 34.1588 -78.4719 29° Northeast  Level FlightAware Approximate
Tue 09:24:00 PM 34.1990 -78.4451 29° Northeast  Level FlightAware Approximate
Tue 09:25:00 PM 34.2378 -78.4157 35° Northeast  Level FlightAware Approximate
Tue 09:26:00 PM 34.2756 -78.3843 35° Northeast  Level FlightAware Approximate
Tue 09:27:00 PM 34.3134 -78.3528 35° Northeast  Level FlightAware Approximate
Tue 09:28:00 PM 34.3527 -78.3243 30° Northeast  Level FlightAware Approximate
Tue 09:29:00 PM 34.3923 -78.2961 30° Northeast  Level FlightAware Approximate
Tue 09:30:00 PM 34.4318 -78.2679 30° Northeast  Level FlightAware Approximate
Tue 09:31:00 PM 34.4713 -78.2397 31° Northeast  Level FlightAware Approximate
Tue 09:32:00 PM 34.5108 -78.2114 31° Northeast  Level FlightAware Approximate
Tue 09:33:00 PM 34.5503 -78.1831 32° Northeast  Level FlightAware Approximate
Tue 09:34:00 PM 34.5894 -78.1539 32° Northeast  Level FlightAware Approximate
Tue 09:35:00 PM 34.6284 -78.1246 32° Northeast  Level FlightAware Approximate
Tue 09:36:00 PM 34.6674 -78.0953 32° Northeast  Level FlightAware Approximate
Tue 09:37:00 PM 34.7066 -78.0664 31° Northeast  Level FlightAware Approximate
Tue 09:37:36 PM 34.7792 -78.0372 29° Northeast 176 203 9,000  Level Washington Center
Tue 09:37:54 PM 34.7894 -78.0325 21° North 176 203 9,000  Level Washington Center
Tue 09:38:00 PM 34.7460 -78.0378 31° Northeast  Level FlightAware Approximate
Tue 09:38:55 PM 34.8319 -77.9958 35° Northeast 174 200 9,000  Level Washington Center
Tue 09:39:00 PM 34.7854 -78.0092 31° Northeast  Level FlightAware Approximate
Tue 09:39:55 PM 34.8722 -77.9642 33° Northeast 174 200 9,000  Level Washington Center
Tue 09:40:00 PM 34.8248 -77.9805 31° Northeast  Level FlightAware Approximate
Tue 09:40:56 PM 34.9167 -77.9400 24° Northeast 175 201 9,000  Level Washington Center
Tue 09:41:00 PM 34.8641 -77.9519 31° Northeast  Level FlightAware Approximate
Tue 09:41:56 PM 34.9508 -77.8981 45° Northeast 174 200 9,000  Level Washington Center
Tue 09:42:00 PM 34.9043 -77.9249 29° Northeast  Level FlightAware Approximate
Tue 09:42:57 PM 34.9931 -77.8739 25° Northeast 173 199 9,000  Level Washington Center
Tue 09:43:58 PM 35.0356 -77.8369 35° Northeast 173 199 9,000  Level Washington Center
Tue 09:44:58 PM 35.0694 -77.7997 42° Northeast 173 199 9,000  Level Washington Center
Tue 09:46:00 PM 35.1181 -77.7758 22° Northeast 176 203 9,000  Level Washington Center
Tue 09:47:01 PM 35.1519 -77.7361 44° Northeast 172 198 9,000  Level Washington Center
Tue 09:48:02 PM 35.1944 -77.7042 32° Northeast 174 200 9,000  Level Washington Center
Tue 09:49:03 PM 35.2386 -77.6747 29° Northeast 175 201 9,000  Level Washington Center
Tue 09:50:12 PM 35.2811 -77.6275 42° Northeast 205 236 9,000  Level Washington Center
Tue 09:51:12 PM 35.3256 -77.6031 24° Northeast 190 219 9,000  Level Washington Center
Tue 09:52:13 PM 35.3617 -77.5658 40° Northeast 173 199 9,000  Level Washington Center
Tue 09:53:14 PM 35.4017 -77.5336 33° Northeast 168 193 9,000  Level Washington Center
Tue 09:54:12 PM 35.4481 -77.5144 19° North 168 193 9,000  Level Washington Center
Tue 09:55:13 PM 35.4861 -77.4772 39° Northeast 168 193 9,000  Level Washington Center
Tue 09:56:14 PM 35.5303 -77.4500 27° Northeast 168 193 9,000 50 Level Washington Center
Tue 09:57:12 PM 35.5767 -77.4231 25° Northeast 173 199 9,100 50 Climbing Washington Center
Tue 09:58:13 PM 35.6147 -77.3881 37° Northeast 173 199 9,100  Level Washington Center
Tue 09:59:13 PM 35.6631 -77.3664 20° North 173 199 9,100  Level Washington Center
Tue 10:00:13 PM 35.7053 -77.3339 32° Northeast 173 199 9,100  Level Washington Center
Tue 10:01:14 PM 35.7453 -77.2989 35° Northeast 173 199 9,100  Level Washington Center
Tue 10:02:14 PM 35.7936 -77.2822 16° North 173 199 9,100  Level Washington Center
Tue 10:03:14 PM 35.8339 -77.2419 39° Northeast 173 199 9,100  Level Washington Center
Tue 10:04:14 PM 35.8781 -77.2122 29° Northeast 178 205 9,100  Level Washington Center
Tue 10:05:12 PM 35.9242 -77.1900 21° North 173 199 9,100  Level Washington Center
Tue 10:06:13 PM 35.9644 -77.1522 37° Northeast 178 205 9,100  Level Washington Center
Tue 10:07:14 PM 36.0128 -77.1225 26° Northeast 178 205 9,100  Level Washington Center
Tue 10:08:14 PM 36.0569 -77.0925 29° Northeast 178 205 9,100  Level Washington Center
Tue 10:09:12 PM 36.0969 -77.0572 35° Northeast 178 205 9,100  Level Washington Center
Tue 10:10:13 PM 36.1453 -77.0350 20° North 178 205 9,100  Level Washington Center
Tue 10:11:07 PM 36.1811 -77.0100 29° Northeast 183 211 9,100  Level Washington Center
Tue 10:11:13 PM 36.1853 -76.9997 63° Northeast 178 205 9,100  Level Washington Center
Tue 10:12:01 PM 36.2211 -76.9772 27° Northeast 186 214 9,100  Level Washington Center
Tue 10:12:13 PM 36.2294 -76.9694 37° Northeast 178 205 9,100  Level Washington Center
Tue 10:13:14 PM 36.2778 -76.9447 22° Northeast 178 205 9,100  Level Washington Center
Tue 10:14:02 PM 36.3072 -76.9142 40° Northeast 185 213 9,100  Level Washington Center
Tue 10:14:14 PM 36.3158 -76.9042 43° Northeast 178 205 9,100  Level Washington Center
Tue 10:15:03 PM 36.3536 -76.8892 18° North 187 215 9,100  Level Washington Center
Tue 10:15:12 PM 36.3639 -76.8817 30° Northeast 178 205 9,100  Level Washington Center
Tue 10:16:03 PM 36.4017 -76.8667 18° North 186 214 9,100  Level Washington Center
Tue 10:16:12 PM 36.4081 -76.8539 58° Northeast 178 205 9,100  Level Washington Center
Tue 10:17:03 PM 36.4417 -76.8261 34° Northeast 184 212 9,100  Level Washington Center
Tue 10:17:14 PM 36.4503 -76.8158 44° Northeast 178 205 9,100  Level Washington Center
Tue 10:18:05 PM 36.4881 -76.7983 20° North 187 215 9,100  Level Washington Center
Tue 10:18:14 PM 36.4964 -76.7908 36° Northeast 178 205 9,100  Level Washington Center
Tue 10:19:06 PM 36.5342 -76.7681 26° Northeast 184 212 9,100  Level Washington Center
Tue 10:19:12 PM 36.5383 -76.7578 63° Northeast 178 205 9,100  Level Washington Center
Tue 10:20:12 PM 36.5806 -76.7222 34° Northeast 178 205 9,100  Level Washington Center
Tue 10:21:06 PM 36.6267 -76.7022 19° North 184 212 9,100  Level Washington Center
Tue 10:22:06 PM 36.6644 -76.6639 39° Northeast 185 213 9,100  Level Washington Center
Tue 10:23:07 PM 36.7086 -76.6333 29° Northeast 180 207 9,100  Level Washington Center
Tue 10:23:25 PM 36.7253 -76.6258 20° North 183 211 9,100  Level Washington Center
Tue 10:24:09 PM 36.7525 -76.6081 28° Northeast 179 206 9,100  Level Washington Center
Tue 10:24:24 PM 36.7611 -76.5978 44° Northeast 177 204 9,100  Level Washington Center
Tue 10:25:09 PM 36.7906 -76.5669 40° Northeast 181 208 9,100  Level Washington Center
Tue 10:25:24 PM 36.8011 -76.5594 30° Northeast 182 209 9,100  Level Washington Center
Tue 10:26:10 PM 36.8408 -76.5417 20° North 185 213 9,100  Level Washington Center
Tue 10:26:25 PM 36.8492 -76.5342 36° Northeast 186 214 9,100  Level Washington Center
Tue 10:27:11 PM 36.8847 -76.5086 30° Northeast 181 208 9,100  Level Washington Center
Tue 10:27:26 PM 36.8892 -76.4983 62° Northeast 182 209 9,100  Level Washington Center
Tue 10:28:11 PM 36.9228 -76.4725 32° Northeast 184 212 9,100  Level Washington Center
Tue 10:28:24 PM 36.9311 -76.4650 36° Northeast 184 212 9,100  Level Washington Center
Tue 10:29:09 PM 36.9708 -76.4472 20° North 181 208 9,100  Level Washington Center
Tue 10:29:24 PM 36.9792 -76.4394 37° Northeast 189 217 9,100  Level Washington Center
Tue 10:30:12 PM 37.0128 -76.4061 38° Northeast 184 212 9,100  Level Washington Center
Tue 10:30:24 PM 37.0169 -76.4008 45° Northeast 182 209 9,100  Level Washington Center
Tue 10:31:11 PM 37.0589 -76.3778 24° Northeast 181 208 9,100  Level Washington Center
Tue 10:31:24 PM 37.0611 -76.3728 61° Northeast 185 213 9,100  Level Washington Center
Tue 10:32:12 PM 37.1028 -76.3497 24° Northeast 185 213 9,100  Level Washington Center
Tue 10:32:24 PM 37.1050 -76.3419 70° East 185 213 9,100  Level Washington Center
Tue 10:33:25 PM 37.1492 -76.2981 38° Northeast 187 215 9,100  Level Washington Center
Tue 10:34:14 PM 37.1889 -76.2853 14° North 180 207 9,100  Level Washington Center
Tue 10:34:26 PM 37.1972 -76.2803 26° Northeast 185 213 9,100  Level Washington Center
Tue 10:35:24 PM 37.2369 -76.2389 40° Northeast 186 214 9,100  Level Washington Center
Tue 10:36:15 PM 37.2747 -76.2106 31° Northeast 185 213 9,100  Level Washington Center
Tue 10:36:24 PM 37.2811 -76.2053 33° Northeast 186 214 9,100  Level Washington Center
Tue 10:37:16 PM 37.3208 -76.1872 20° North 185 213 9,100  Level Washington Center
Tue 10:37:25 PM 37.3292 -76.1769 44° Northeast 186 214 9,100  Level Washington Center
Tue 10:38:26 PM 37.3647 -76.1433 37° Northeast 211 243 9,100  Level Washington Center
Tue 10:39:24 PM 37.4108 -76.1147 26° Northeast 207 238 9,100  Level Washington Center
Tue 10:40:25 PM 37.4567 -76.0864 26° Northeast 181 208 9,100  Level Washington Center
Tue 10:41:25 PM 37.4944 -76.0447 41° Northeast 175 201 9,100  Level Washington Center
Tue 10:42:25 PM 37.5425 -76.0214 21° North 175 201 9,100  Level Washington Center
Tue 10:43:26 PM 37.5781 -75.9850 39° Northeast 170 196 9,100  Level Washington Center
Tue 10:44:24 PM 37.6219 -75.9511 31° Northeast 170 196 9,100  Level Washington Center
Tue 10:45:25 PM 37.6681 -75.9356 15° North 170 196 9,100  Level Washington Center
Tue 10:46:25 PM 37.7097 -75.8989 35° Northeast 170 196 9,100  Level Washington Center
Tue 10:47:25 PM 37.7558 -75.8781 20° North 175 201 9,100  Level Washington Center
Tue 10:48:26 PM 37.8058 -75.8467 26° Northeast 175 201 9,100  Level Washington Center
Tue 10:49:25 PM 37.8433 -75.8100 38° Northeast 176 203 9,100  Level Washington Center
Tue 10:50:25 PM 37.8914 -75.7917 17° North 176 203 9,100  Level Washington Center
Tue 10:51:26 PM 37.9375 -75.7656 24° Northeast 176 203 9,100  Level Washington Center
Tue 10:52:26 PM 37.9811 -75.7339 30° Northeast 170 196 9,100 -50 Level Washington Center
Tue 10:53:26 PM 38.0292 -75.7156 17° North 175 201 9,000 -50 Descending Washington Center
Tue 10:54:26 PM 38.0689 -75.6789 36° Northeast 169 194 9,000  Level Washington Center
Tue 10:55:24 PM 38.1106 -75.6472 31° Northeast 169 194 9,000  Level Washington Center
Tue 10:56:24 PM 38.1606 -75.6286 16° North 174 200 9,000  Level Washington Center
Tue 10:57:26 PM 38.2003 -75.5892 38° Northeast 174 200 9,000  Level Washington Center
Tue 10:58:26 PM 38.2503 -75.5733 14° North 174 200 9,000  Level Washington Center
Tue 10:59:24 PM 38.2942 -75.5442 28° Northeast 174 200 9,000  Level Washington Center
Tue 11:00:26 PM 38.3378 -75.5069 34° Northeast 180 207 9,000  Level Washington Center
Tue 11:01:24 PM 38.3878 -75.4911 14° North 174 200 9,000  Level Washington Center
Tue 11:02:25 PM 38.4253 -75.4539 38° Northeast 168 193 9,000  Level Washington Center
Tue 11:03:26 PM 38.4692 -75.4272 25° Northeast 168 193 9,000  Level Washington Center
Tue 11:04:24 PM 38.5169 -75.4086 17° North 168 193 9,000  Level Washington Center
Tue 11:05:24 PM 38.5544 -75.3686 40° Northeast 168 193 9,000  Level Washington Center
Tue 11:06:25 PM 38.6025 -75.3472 19° North 174 200 9,000  Level Washington Center
Tue 11:07:26 PM 38.6461 -75.3233 23° Northeast 174 200 9,000  Level Washington Center
Tue 11:08:24 PM 38.6878 -75.2831 37° Northeast 169 194 9,000  Level Washington Center
Tue 11:09:24 PM 38.7356 -75.2669 15° North 169 194 9,000  Level Washington Center
Tue 11:10:25 PM 38.7772 -75.2347 31° Northeast 169 194 9,000  Level Washington Center
Tue 11:11:26 PM 38.8189 -75.2025 31° Northeast 169 194 9,000  Level Washington Center
Tue 11:12:26 PM 38.8689 -75.1864 14° North 174 200 9,000 -300 Level Washington Center
Tue 11:13:26 PM 38.9125 -75.1514 32° Northeast 174 200 8,400 -508 Descending Washington Center
Tue 11:14:24 PM 38.9603 -75.1244 24° Northeast 179 206 8,000 -200 Descending Washington Center
Tue 11:15:26 PM 39.0122 -75.1056 16° North 179 206 8,000  Level Washington Center
Tue 11:17:00 PM 39.0758 -75.0526 33° Northeast  Level FlightAware Approximate
Tue 11:24:00 PM 39.3594 -74.8149 33° Northeast  Level FlightAware Approximate
Tue 11:25:00 PM 39.4023 -74.7850 28° Northeast  Level FlightAware Approximate
Tue 11:26:00 PM 39.4451 -74.7551 28° Northeast  Level FlightAware Approximate
Tue 11:27:00 PM 39.4880 -74.7251 28° Northeast  Level FlightAware Approximate
Tue 11:28:00 PM 39.5277 -74.6890 38° Northeast  Level FlightAware Approximate
Tue 11:29:00 PM 39.5663 -74.6504 38° Northeast  Level FlightAware Approximate
Tue 11:30:00 PM 39.6049 -74.6118 38° Northeast  Level FlightAware Approximate
Tue 11:31:00 PM 39.6434 -74.5732 38° Northeast  Level FlightAware Approximate
Tue 11:32:00 PM 39.6827 -74.5358 34° Northeast  Level FlightAware Approximate

Login

Don't have an account? Register now (free) for customized features, flight alerts, and more!